Time;durP1;ratioP1;P1;durP2;ratioP2;P2;SDS_P1;SDS_P2;PMS_P1;PMS_P2;Temp;Humidity;BMP_temperature;BMP_pressure;BME280_temperature;BME280_humidity;BME280_pressure;Samples;Min_cycle;Max_cycle;Signal;HPM_P1;HPM_P2
2021/03/22 00:00:20;;;;;;;26.45;13.18;;;;;;;-0.17;67.90;98507.03;1749909;81;21061;-69
2021/03/22 00:02:48;;;;;;;25.88;12.95;;;;;;;-0.19;67.94;98506.50;1749976;82;21002;-68
2021/03/22 00:05:17;;;;;;;26.85;14.10;;;;;;;-0.21;67.95;98509.47;1749879;82;21366;-68
2021/03/22 00:07:45;;;;;;;30.62;15.03;;;;;;;-0.25;67.98;98496.25;1749827;81;21022;-68
2021/03/22 00:10:14;;;;;;;28.90;13.62;;;;;;;-0.26;67.90;98506.77;1749925;82;21506;-68
2021/03/22 00:12:42;;;;;;;24.95;13.72;;;;;;;-0.28;67.90;98498.68;1748687;82;21089;-69
2021/03/22 00:15:12;;;;;;;26.55;13.35;;;;;;;-0.30;67.98;98501.64;1744031;82;21102;-68
2021/03/22 00:17:40;;;;;;;25.55;12.88;;;;;;;-0.33;68.02;98499.48;1747013;82;21423;-68
2021/03/22 00:20:11;;;;;;;24.30;13.65;;;;;;;-0.33;68.04;98503.53;1746888;82;21018;-69
2021/03/22 00:22:39;;;;;;;28.15;14.85;;;;;;;-0.35;68.11;98497.60;1746956;82;21136;-68
2021/03/22 00:25:09;;;;;;;25.52;13.70;;;;;;;-0.37;68.20;98502.45;1747031;81;21585;-68
2021/03/22 00:27:38;;;;;;;31.87;13.88;;;;;;;-0.38;68.26;98504.88;1746985;82;21128;-68
2021/03/22 00:30:08;;;;;;;24.95;13.13;;;;;;;-0.40;68.29;98493.55;1746998;82;21220;-68
2021/03/22 00:32:37;;;;;;;26.57;13.25;;;;;;;-0.42;68.47;98495.71;1746903;82;21576;-68
2021/03/22 00:35:06;;;;;;;28.17;14.60;;;;;;;-0.42;68.63;98501.10;1746944;82;21077;-68
2021/03/22 00:37:34;;;;;;;26.55;13.45;;;;;;;-0.43;68.70;98496.79;1746968;82;20970;-68
2021/03/22 00:40:03;;;;;;;23.38;13.55;;;;;;;-0.45;68.75;98484.92;1746956;82;21086;-68
2021/03/22 00:42:30;;;;;;;32.85;13.95;;;;;;;-0.45;68.75;98488.16;1747044;82;22268;-68
2021/03/22 00:44:58;;;;;;;26.87;14.85;;;;;;;-0.46;68.78;98486.55;1719373;82;21125;-69
2021/03/22 00:47:28;;;;;;;26.27;13.75;;;;;;;-0.49;68.78;98485.73;1746920;82;21141;-69
2021/03/22 00:49:56;;;;;;;23.73;12.98;;;;;;;-0.53;68.80;98488.16;1742706;82;21188;-68
2021/03/22 00:52:24;;;;;;;26.75;14.35;;;;;;;-0.54;68.85;98488.43;1737221;82;21065;-68
2021/03/22 00:54:51;;;;;;;27.65;12.78;;;;;;;-0.56;68.82;98481.95;1737198;82;21379;-68
2021/03/22 00:57:19;;;;;;;27.02;13.65;;;;;;;-0.58;68.90;98483.33;1737169;82;21022;-68
2021/03/22 00:59:47;;;;;;;26.62;13.70;;;;;;;-0.60;68.97;98482.25;1737177;82;21152;-68
2021/03/22 01:02:15;;;;;;;28.00;13.80;;;;;;;-0.63;68.95;98479.29;1737133;82;20930;-68
2021/03/22 01:04:43;;;;;;;26.33;13.45;;;;;;;-0.67;68.97;98475.78;1737298;82;21473;-69
2021/03/22 01:07:10;;;;;;;29.77;13.88;;;;;;;-0.70;69.02;98471.47;1737200;82;22191;-68
2021/03/22 01:09:38;;;;;;;28.80;14.68;;;;;;;-0.72;69.10;98473.62;1737124;82;21026;-68
2021/03/22 01:12:08;;;;;;;29.02;14.43;;;;;;;-0.75;69.23;98477.66;1737182;82;21509;-68
2021/03/22 01:14:35;;;;;;;26.27;13.58;;;;;;;-0.79;69.33;98475.77;1737160;82;20934;-68
2021/03/22 01:17:04;;;;;;;27.45;13.90;;;;;;;-0.83;69.47;98471.98;1737176;82;21056;-68
2021/03/22 01:19:32;;;;;;;31.27;15.53;;;;;;;-0.85;69.54;98478.98;1737272;82;21146;-68
2021/03/22 01:22:01;;;;;;;33.58;15.65;;;;;;;-0.87;69.67;98481.14;1737107;82;21021;-68
2021/03/22 01:24:31;;;;;;;37.83;18.23;;;;;;;-0.89;69.81;98473.87;1737157;82;20990;-68
2021/03/22 01:27:03;;;;;;;29.95;16.25;;;;;;;-0.91;69.94;98475.20;1737139;82;20946;-69
2021/03/22 01:29:37;;;;;;;32.65;15.68;;;;;;;-0.92;70.11;98476.28;1737343;82;21014;-69
2021/03/22 01:32:09;;;;;;;37.40;18.32;;;;;;;-0.95;70.26;98477.63;1737210;82;22136;-69
2021/03/22 01:34:37;;;;;;;33.58;17.07;;;;;;;-0.96;70.40;98477.35;1742492;81;21596;-68
2021/03/22 01:37:05;;;;;;;34.70;17.17;;;;;;;-0.96;70.47;98473.31;1742809;82;21472;-69
2021/03/22 01:39:36;;;;;;;29.48;13.98;;;;;;;-0.93;70.54;98478.70;1746936;82;21093;-69
2021/03/22 01:42:09;;;;;;;32.85;14.20;;;;;;;-0.93;70.58;98467.39;1747033;82;21058;-69
2021/03/22 01:44:41;;;;;;;27.48;13.98;;;;;;;-0.90;70.61;98474.13;1746933;82;21345;-69
2021/03/22 01:47:19;;;;;;;27.50;14.65;;;;;;;-0.89;70.68;98475.21;1746717;82;21152;-68
2021/03/22 01:49:52;;;;;;;29.82;14.28;;;;;;;-0.88;70.62;98474.14;1746836;82;21581;-68
2021/03/22 01:52:22;;;;;;;27.80;14.53;;;;;;;-0.85;70.59;98464.71;1747009;82;21483;-68
2021/03/22 01:54:50;;;;;;;27.60;13.65;;;;;;;-0.83;70.58;98463.37;1747046;82;21589;-68
2021/03/22 01:57:32;;;;;;;26.50;13.68;;;;;;;-0.81;70.46;98458.52;1746905;82;21489;-68
2021/03/22 02:00:11;;;;;;;27.32;14.07;;;;;;;-0.77;70.42;98459.60;1746928;82;20994;-68
2021/03/22 02:02:40;;;;;;;27.70;13.80;;;;;;;-0.77;70.33;98452.86;1743564;82;21157;-68
2021/03/22 02:05:12;;;;;;;30.20;14.23;;;;;;;-0.74;70.26;98455.02;1746845;82;21173;-69
2021/03/22 02:07:40;;;;;;;32.70;14.65;;;;;;;-0.71;70.10;98457.18;1746963;82;20998;-68
2021/03/22 02:10:09;;;;;;;26.55;13.98;;;;;;;-0.69;69.99;98456.38;1719099;82;21401;-68
2021/03/22 02:12:37;;;;;;;26.15;13.78;;;;;;;-0.68;70.02;98455.30;1746800;82;21683;-68
2021/03/22 02:15:08;;;;;;;25.95;13.90;;;;;;;-0.64;69.89;98454.76;1749856;82;21078;-68
2021/03/22 02:17:51;;;;;;;31.77;15.78;;;;;;;-0.64;69.81;98450.17;1749907;82;21158;-68
2021/03/22 02:20:56;;;;;;;27.75;14.15;;;;;;;-0.62;69.73;98453.95;1749954;81;20990;-68
2021/03/22 02:23:59;;;;;;;26.12;13.40;;;;;;;-0.62;69.65;98457.45;1749779;82;22064;-69
2021/03/22 02:26:53;;;;;;;;;;;;;;;-0.61;69.60;98458.27;1745318;82;21201;-68
2021/03/22 02:30:03;;;;;;;28.30;13.72;;;;;;;-0.59;69.47;98448.02;1749807;82;20137;-68
2021/03/22 02:32:57;;;;;;;27.27;14.80;;;;;;;-0.58;69.32;98453.69;1749791;81;21593;-69
2021/03/22 02:35:56;;;;;;;26.50;13.25;;;;;;;-0.57;69.11;98444.48;1749788;81;21046;-69
2021/03/22 02:38:46;;;;;;;27.45;14.53;;;;;;;-0.55;68.89;98440.44;1749876;81;21462;-69
2021/03/22 02:41:18;;;;;;;27.27;13.83;;;;;;;-0.54;68.82;98433.97;1725563;82;21093;-69
2021/03/22 02:44:06;;;;;;;32.48;15.70;;;;;;;-0.53;68.74;98431.55;1749919;82;21074;-69
2021/03/22 02:46:35;;;;;;;30.68;14.18;;;;;;;-0.52;68.69;98436.39;1749773;82;21493;-69
2021/03/22 02:49:06;;;;;;;29.60;13.75;;;;;;;-0.51;68.77;98428.58;1749925;82;21069;-69
2021/03/22 02:52:13;;;;;;;30.50;14.57;;;;;;;-0.50;68.70;98432.35;1750100;82;21482;-69
2021/03/22 02:55:09;;;;;;;32.70;15.48;;;;;;;-0.49;68.60;98430.47;1749756;82;20990;-69
2021/03/22 02:57:45;;;;;;;27.50;13.95;;;;;;;-0.49;68.61;98428.58;1718696;82;21141;-68
2021/03/22 03:00:21;;;;;;;29.25;14.53;;;;;;;-0.50;68.63;98426.96;1748513;82;21516;-69
2021/03/22 03:02:50;;;;;;;26.33;14.13;;;;;;;-0.48;68.51;98426.69;1749767;82;21651;-68
2021/03/22 03:05:21;;;;;;;29.27;14.50;;;;;;;-0.48;68.56;98428.04;1724736;82;23659;-69
2021/03/22 03:07:48;;;;;;;27.48;13.60;;;;;;;-0.46;68.60;98421.84;1749789;82;21176;-69
2021/03/22 03:10:18;;;;;;;32.30;14.73;;;;;;;-0.46;68.73;98418.60;1749767;81;21011;-69
2021/03/22 03:12:46;;;;;;;30.70;15.28;;;;;;;-0.45;68.86;98418.06;1749707;82;21109;-70
2021/03/22 03:15:15;;;;;;;27.40;14.35;;;;;;;-0.46;69.16;98419.14;1749821;81;20998;-69
2021/03/22 03:17:44;;;;;;;30.72;15.93;;;;;;;-0.48;69.88;98418.60;1749413;81;21112;-69
2021/03/22 03:20:18;;;;;;;27.98;14.58;;;;;;;-0.50;70.36;98414.83;1749796;82;21089;-69
2021/03/22 03:22:46;;;;;;;29.00;14.45;;;;;;;-0.52;70.67;98417.53;1749880;82;20958;-70
2021/03/22 03:25:14;;;;;;;34.98;16.40;;;;;;;-0.54;71.03;98415.10;1749820;82;21505;-69
2021/03/22 03:27:42;;;;;;;28.27;15.23;;;;;;;-0.58;71.33;98415.41;1749756;82;21176;-70
2021/03/22 03:30:13;;;;;;;29.87;14.98;;;;;;;-0.57;71.52;98416.18;1745202;82;21826;-70
2021/03/22 03:32:41;;;;;;;30.02;14.95;;;;;;;-0.58;71.60;98415.95;1737171;82;21128;-70
2021/03/22 03:35:11;;;;;;;30.20;14.58;;;;;;;-0.56;71.68;98411.06;1737756;82;21116;-70
2021/03/22 03:37:39;;;;;;;29.63;15.43;;;;;;;-0.56;71.66;98411.06;1737765;82;21140;-70
2021/03/22 03:40:10;;;;;;;27.00;14.30;;;;;;;-0.57;71.67;98411.59;1737827;82;21465;-70
2021/03/22 03:42:38;;;;;;;28.80;14.80;;;;;;;-0.55;71.74;98407.28;1737683;82;21375;-70
2021/03/22 03:45:09;;;;;;;30.68;15.20;;;;;;;-0.54;71.89;98411.06;1737707;82;20958;-70
2021/03/22 03:47:41;;;;;;;29.57;16.00;;;;;;;-0.57;71.90;98402.70;1737821;82;21660;-69
2021/03/22 03:50:16;;;;;;;36.17;15.38;;;;;;;-0.59;72.06;98404.35;1737883;82;26499;-69
2021/03/22 03:52:44;;;;;;;34.75;16.07;;;;;;;-0.60;72.19;98400.58;1737797;82;21163;-69
2021/03/22 03:55:14;;;;;;;34.45;15.75;;;;;;;-0.62;72.27;98398.69;1737755;82;21165;-69
2021/03/22 03:57:47;;;;;;;33.08;16.87;;;;;;;-0.63;72.37;98395.73;1737704;82;20942;-69
2021/03/22 04:00:32;;;;;;;31.30;15.95;;;;;;;-0.67;72.39;98390.07;1737799;82;20927;-69
2021/03/22 04:03:27;;;;;;;29.67;15.78;;;;;;;-0.68;72.49;98394.66;1737728;82;21033;-69
2021/03/22 04:06:00;;;;;;;33.18;15.58;;;;;;;-0.70;72.62;98387.38;1737868;82;21473;-69
2021/03/22 04:08:28;;;;;;;32.50;15.60;;;;;;;-0.71;72.84;98388.45;1737792;82;21214;-69
2021/03/22 04:10:56;;;;;;;33.48;15.83;;;;;;;-0.74;72.98;98387.65;1737689;82;20954;-69
2021/03/22 04:13:24;;;;;;;28.95;15.18;;;;;;;-0.73;73.25;98389.80;1737508;82;21089;-69
2021/03/22 04:15:52;;;;;;;28.83;15.72;;;;;;;-0.75;73.56;98386.03;1737215;82;21077;-70
2021/03/22 04:18:21;;;;;;;30.55;15.90;;;;;;;-0.76;73.86;98389.00;1737974;82;20947;-70
2021/03/22 04:20:50;;;;;;;33.80;15.85;;;;;;;-0.77;74.12;98388.19;1737220;82;21202;-70
2021/03/22 04:23:17;;;;;;;32.80;16.77;;;;;;;-0.78;74.38;98385.22;1737149;82;21176;-69
2021/03/22 04:25:45;;;;;;;31.65;15.83;;;;;;;-0.76;74.64;98385.77;1737108;82;20951;-70
2021/03/22 04:28:13;;;;;;;29.55;14.98;;;;;;;-0.72;74.71;98390.88;1737261;82;21088;-70
2021/03/22 04:30:40;;;;;;;34.50;16.67;;;;;;;-0.69;74.69;98391.69;1737241;82;20990;-70
2021/03/22 04:33:07;;;;;;;29.87;15.50;;;;;;;-0.65;74.52;98391.15;1720348;82;21469;-71
2021/03/22 04:35:35;;;;;;;31.02;15.15;;;;;;;-0.64;74.47;98386.84;1737142;82;20951;-70
2021/03/22 04:38:03;;;;;;;30.82;15.30;;;;;;;-0.62;74.29;98386.02;1737176;82;21013;-70
2021/03/22 04:40:30;;;;;;;31.52;15.65;;;;;;;-0.60;74.13;98391.95;1737094;82;21029;-70
2021/03/22 04:42:57;;;;;;;34.18;16.27;;;;;;;-0.58;73.99;98382.25;1737151;82;21097;-70
2021/03/22 04:45:28;;;;;;;36.28;16.52;;;;;;;-0.55;73.83;98386.52;1737166;82;21830;-70
2021/03/22 04:47:55;;;;;;;30.68;15.75;;;;;;;-0.50;73.71;98389.76;1737219;82;21533;-70
2021/03/22 04:50:25;;;;;;;28.73;15.13;;;;;;;-0.44;73.41;98384.63;1737191;82;21532;-73
2021/03/22 04:52:52;;;;;;;29.07;14.85;;;;;;;-0.38;73.12;98391.63;1737237;82;21512;-71
2021/03/22 04:55:22;;;;;;;29.90;14.80;;;;;;;-0.34;72.61;98385.95;1737252;82;21072;-70
2021/03/22 04:57:50;;;;;;;28.87;14.65;;;;;;;-0.31;72.29;98390.80;1737214;82;21042;-70
2021/03/22 05:00:25;;;;;;;30.92;16.87;;;;;;;-0.26;72.47;98388.09;1737211;82;21184;-70
2021/03/22 05:02:54;;;;;;;30.57;16.12;;;;;;;-0.18;72.12;98378.64;1719789;82;20915;-72
2021/03/22 05:05:24;;;;;;;46.47;16.60;;;;;;;;;;1737382;82;20962;-72
2021/03/22 05:07:52;;;;;;;30.35;16.10;;;;;;;-0.05;71.06;98376.17;1737223;82;21573;-71
2021/03/22 05:10:26;;;;;;;29.95;16.07;;;;;;;0.01;70.83;98376.94;1737274;82;22692;-71
2021/03/22 05:12:53;;;;;;;35.25;17.60;;;;;;;0.09;70.92;98380.41;1737074;82;21101;-71
2021/03/22 05:15:22;;;;;;;30.82;14.93;;;;;;;0.17;70.59;98378.49;1736993;81;21131;-70
2021/03/22 05:17:49;;;;;;;30.35;14.98;;;;;;;0.23;70.12;98389.53;1737085;82;21124;-70
2021/03/22 05:20:31;;;;;;;29.82;14.20;;;;;;;0.30;69.87;98389.23;1737198;82;21122;-70
2021/03/22 05:23:02;;;;;;;27.95;15.28;;;;;;;0.37;69.78;98394.34;1737323;82;21153;-69
2021/03/22 05:25:30;;;;;;;31.05;15.15;;;;;;;0.45;69.28;98393.22;1737098;82;21018;-69
2021/03/22 05:27:59;;;;;;;28.38;14.80;;;;;;;0.49;68.69;98396.17;1737159;82;21112;-69
2021/03/22 05:30:28;;;;;;;28.87;14.75;;;;;;;0.52;68.40;98393.72;1737096;82;20930;-69
2021/03/22 05:33:00;;;;;;;32.17;16.05;;;;;;;0.55;68.49;98395.87;1737219;82;21081;-70
2021/03/22 05:35:28;;;;;;;26.95;14.75;;;;;;;0.61;68.56;98402.02;1737280;82;21374;-70
2021/03/22 05:37:56;;;;;;;27.70;14.25;;;;;;;0.68;68.04;98400.36;1737181;82;21505;-70
2021/03/22 05:40:33;;;;;;;28.90;14.83;;;;;;;0.74;67.47;98401.41;1737298;82;21494;-69
2021/03/22 05:43:19;;;;;;;30.20;14.70;;;;;;;0.79;67.19;98396.52;1737079;82;21117;-69
2021/03/22 05:46:38;;;;;;;29.25;14.80;;;;;;;0.86;67.59;98405.12;1737069;82;21068;-69
2021/03/22 05:49:33;;;;;;;27.90;14.35;;;;;;;0.94;66.89;98401.83;1737211;82;22287;-69
2021/03/22 05:52:15;;;;;;;25.60;14.47;;;;;;;1.00;66.53;98400.70;1695226;84;21150;-70
2021/03/22 05:55:11;;;;;;;27.50;14.45;;;;;;;1.10;66.35;98400.63;1691218;84;21089;-68
2021/03/22 05:57:55;;;;;;;30.30;15.32;;;;;;;1.20;66.39;98398.36;1682921;84;21584;-69
2021/03/22 06:00:42;;;;;;;28.25;14.38;;;;;;;1.30;66.31;98403.15;1686773;84;21639;-68
2021/03/22 06:03:39;;;;;;;28.10;14.28;;;;;;;1.35;65.49;98392.84;1688791;84;20983;-67
2021/03/22 06:06:33;;;;;;;27.87;14.53;;;;;;;1.39;65.18;98395.78;1691397;84;21220;-67
2021/03/22 06:09:25;;;;;;;28.00;14.43;;;;;;;1.37;64.95;98395.26;1722116;82;21013;-68
2021/03/22 06:12:07;;;;;;;30.27;15.03;;;;;;;1.39;65.07;98401.19;1704645;84;20969;-70
2021/03/22 06:14:51;;;;;;;25.97;13.45;;;;;;;1.46;64.99;98400.31;1705727;82;21104;-72
2021/03/22 06:17:59;;;;;;;29.25;14.53;;;;;;;1.49;65.43;98399.75;1690901;83;22141;-72
2021/03/22 06:20:34;;;;;;;27.07;13.75;;;;;;;1.57;65.22;98404.55;1687957;84;21184;-70
2021/03/22 06:23:18;;;;;;;27.42;13.15;;;;;;;1.66;64.90;98400.13;1702541;84;21512;-69
2021/03/22 06:25:45;;;;;;;23.57;12.53;;;;;;;1.80;64.49;98400.24;1729510;83;21036;-70
2021/03/22 06:28:23;;;;;;;23.73;13.30;;;;;;;1.89;63.53;98395.81;1729507;83;21067;-70
2021/03/22 06:31:16;;;;;;;23.57;11.83;;;;;;;1.94;63.36;98401.17;1729596;83;21380;-70
2021/03/22 06:33:46;;;;;;;29.90;13.85;;;;;;;1.98;63.61;98403.02;1703517;83;21054;-69
2021/03/22 06:36:20;;;;;;;27.05;13.50;;;;;;;2.02;63.43;98405.16;1729641;83;20898;-69
2021/03/22 06:38:51;;;;;;;23.12;12.00;;;;;;;2.07;63.76;98411.87;1729589;81;21183;-69
2021/03/22 06:41:48;;;;;;;23.83;13.00;;;;;;;2.14;63.26;98405.02;1729517;83;21115;-69
2021/03/22 06:44:36;;;;;;;28.83;13.58;;;;;;;2.17;63.61;98413.91;1729543;83;21206;-70
2021/03/22 06:47:08;;;;;;;25.57;13.43;;;;;;;2.22;63.63;98411.70;1729431;83;20965;-70
2021/03/22 06:49:38;;;;;;;27.60;12.73;;;;;;;2.29;63.75;98412.97;1727921;83;21076;-69
2021/03/22 06:55:42;;;;;;;29.87;14.63;;;;;;;2.36;63.33;98411.78;1729590;83;21166;-71
2021/03/22 06:58:25;;;;;;;33.23;16.25;;;;;;;2.36;63.62;98405.81;1729031;82;21382;-70
2021/03/22 07:00:53;;;;;;;23.32;11.55;;;;;;;2.39;63.65;98408.48;1732574;82;21227;-71
2021/03/22 07:03:25;;;;;;;23.42;12.37;;;;;;;2.44;63.87;98409.78;1624322;85;21168;-69
2021/03/22 07:05:52;;;;;;;;;;;;;;;2.50;63.63;98405.36;1690442;84;21161;-70
2021/03/22 07:08:39;;;;;;;24.72;12.55;;;;;;;2.57;63.79;98406.36;1687207;84;20554;-70
2021/03/22 07:11:20;;;;;;;23.73;12.00;;;;;;;2.70;63.81;98411.62;1685134;84;21136;-70
2021/03/22 07:14:01;;;;;;;26.93;13.78;;;;;;;2.83;63.13;98410.34;1674441;85;21090;-69
2021/03/22 07:16:30;;;;;;;21.65;12.55;;;;;;;2.95;63.52;98416.11;1679665;85;21613;-70
2021/03/22 07:19:18;;;;;;;22.55;11.38;;;;;;;3.09;63.15;98418.09;1719323;83;21061;-71
2021/03/22 07:21:54;;;;;;;22.25;12.58;;;;;;;3.19;63.26;98416.03;1719262;83;21621;-70
2021/03/22 07:24:27;;;;;;;21.48;12.47;;;;;;;3.26;62.74;98416.46;1743667;82;21369;-72
2021/03/22 07:27:21;;;;;;;25.25;12.55;;;;;;;3.26;63.04;98421.89;1733060;81;21158;-71
2021/03/22 07:30:00;;;;;;;20.12;10.38;;;;;;;3.21;63.48;98420.61;1719524;82;21633;-70
2021/03/22 07:32:57;;;;;;;22.42;11.95;;;;;;;3.20;63.71;98420.35;1719495;83;21142;-71
2021/03/22 07:35:50;;;;;;;23.95;12.25;;;;;;;3.14;64.46;98425.59;1725343;82;21081;-71
2021/03/22 07:38:46;;;;;;;22.98;12.28;;;;;;;3.08;65.16;98423.25;1734136;82;21464;-70
2021/03/22 07:41:40;;;;;;;18.90;10.55;;;;;;;3.07;65.33;98416.22;1749222;82;21197;-71
2021/03/22 07:44:27;;;;;;;22.27;12.53;;;;;;;3.00;64.80;98419.30;1749389;81;21584;-70
2021/03/22 07:47:42;;;;;;;22.10;10.63;;;;;;;2.95;65.14;98413.95;1749178;82;21069;-71
2021/03/22 07:50:33;;;;;;;24.25;10.03;;;;;;;3.03;65.13;98415.20;1741517;82;21129;-71
2021/03/22 07:53:17;;;;;;;25.40;13.38;;;;;;;3.08;65.19;98415.92;1699650;82;21689;-71
2021/03/22 07:55:56;;;;;;;16.05;9.58;;;;;;;3.04;65.73;98422.23;1737907;81;21099;-71
2021/03/22 07:58:50;;;;;;;18.60;11.25;;;;;;;2.99;66.29;98411.71;1719519;83;21100;-71
2021/03/22 08:01:40;;;;;;;51.28;21.33;;;;;;;3.01;66.60;98411.97;1720482;82;22064;-73
2021/03/22 08:04:42;;;;;;;27.85;10.98;;;;;;;3.07;66.50;98410.24;1719378;83;21117;-70
2021/03/22 08:07:46;;;;;;;23.60;11.03;;;;;;;3.07;65.93;98418.93;1746023;82;21807;-71
2021/03/22 08:10:28;;;;;;;17.45;10.53;;;;;;;3.01;66.38;98411.97;1746874;82;21128;-72
2021/03/22 08:13:04;;;;;;;23.52;11.88;;;;;;;2.91;67.21;98416.44;1749367;81;21520;-71
2021/03/22 08:16:04;;;;;;;19.45;11.83;;;;;;;2.88;67.76;98424.38;1744294;82;21089;-70
2021/03/22 08:18:54;;;;;;;19.48;11.55;;;;;;;2.87;68.41;98424.93;1728425;82;20958;-70
2021/03/22 08:21:48;;;;;;;19.75;10.78;;;;;;;2.93;69.68;98429.70;1716603;83;22255;-70
2021/03/22 08:24:41;;;;;;;21.60;11.25;;;;;;;3.03;70.43;98425.48;1716669;82;21186;-71
2021/03/22 08:27:16;;;;;;;20.90;12.03;;;;;;;3.16;71.36;98422.59;1723856;82;21573;-73
2021/03/22 08:30:13;;;;;;;20.82;11.50;;;;;;;3.24;72.03;98426.80;1738564;82;21183;-71
2021/03/22 08:33:02;;;;;;;17.48;10.40;;;;;;;3.26;71.89;98428.67;1741641;82;21597;-71
2021/03/22 08:35:46;;;;;;;19.65;11.78;;;;;;;3.19;71.63;98424.71;1716796;83;21532;-72
2021/03/22 08:38:15;;;;;;;;;;;;;;;2.98;71.87;98422.85;1719258;83;21120;-73
2021/03/22 08:40:50;;;;;;;21.20;11.88;;;;;;;2.73;72.61;98424.03;1716560;83;20148;-72
2021/03/22 08:43:54;;;;;;;20.15;11.48;;;;;;;2.49;73.58;98432.20;1686435;83;21193;-72
2021/03/22 08:46:27;;;;;;;22.75;12.40;;;;;;;2.38;75.05;98429.35;1716580;82;21141;-73
2021/03/22 08:48:55;;;;;;;21.10;12.30;;;;;;;2.28;75.62;98424.89;1716828;83;21376;-72
2021/03/22 08:51:30;;;;;;;20.88;12.07;;;;;;;2.17;76.16;98424.75;1729523;82;21141;-74
2021/03/22 08:56:44;;;;;;;22.82;11.28;;;;;;;2.12;77.42;98425.34;1873200;76;22669;-73
2021/03/22 08:59:19;;;;;;;25.43;12.88;;;;;;;2.04;77.13;98433.55;1841132;78;20980;-72
2021/03/22 09:01:46;;;;;;;20.35;11.48;;;;;;;1.98;78.61;98436.05;1840938;78;21419;-71
2021/03/22 09:04:30;;;;;;;17.50;11.50;;;;;;;1.93;77.96;98434.20;1835859;78;20920;-74
2021/03/22 09:07:16;;;;;;;21.73;12.10;;;;;;;1.88;77.89;98434.25;1808055;79;21129;-74
2021/03/22 09:09:46;;;;;;;21.50;12.80;;;;;;;1.74;78.04;98438.72;1807922;79;20928;-70
2021/03/22 09:12:34;;;;;;;19.12;11.93;;;;;;;1.67;79.57;98438.81;1824108;76;21450;-71
2021/03/22 09:15:21;;;;;;;22.50;12.00;;;;;;;1.67;79.27;98434.76;1811508;76;21334;-73
2021/03/22 09:18:03;;;;;;;21.85;12.90;;;;;;;1.67;79.50;98443.68;1798393;78;21027;-72
2021/03/22 09:20:51;;;;;;;21.12;12.55;;;;;;;1.67;80.04;98442.33;1841400;78;21135;-74
2021/03/22 09:23:36;;;;;;;27.48;14.23;;;;;;;1.69;80.79;98442.85;1802429;78;21699;-73
2021/03/22 09:26:09;;;;;;;24.55;12.47;;;;;;;1.72;80.54;98450.40;1841196;78;21031;-73
2021/03/22 09:28:45;;;;;;;26.55;14.03;;;;;;;1.72;80.94;98452.30;1790543;80;21344;-72
2021/03/22 09:31:18;;;;;;;26.02;13.72;;;;;;;1.77;81.20;98450.88;1781321;80;21574;-77
2021/03/22 09:34:05;;;;;;;25.10;14.90;;;;;;;1.80;81.50;98449.75;1773773;79;21112;-74
2021/03/22 09:36:47;;;;;;;24.63;14.10;;;;;;;1.90;81.32;98447.50;1774659;80;21194;-72
2021/03/22 09:39:43;;;;;;;25.50;13.48;;;;;;;1.97;81.13;98444.72;1765276;79;21115;-73
2021/03/22 09:42:19;;;;;;;24.12;13.68;;;;;;;2.02;80.95;98438.99;1748423;82;21887;-73
2021/03/22 09:45:02;;;;;;;26.62;14.47;;;;;;;2.13;81.02;98446.72;1740286;82;21178;-72
2021/03/22 09:47:32;;;;;;;23.65;13.75;;;;;;;2.18;80.73;98445.31;1739471;81;21004;-73
2021/03/22 09:50:11;;;;;;;25.05;14.05;;;;;;;2.18;80.91;98452.63;1740696;82;21154;-72
2021/03/22 09:52:58;;;;;;;22.80;13.48;;;;;;;2.14;80.41;98447.53;1758867;81;21143;-73
2021/03/22 09:55:30;;;;;;;27.35;14.30;;;;;;;2.16;79.67;98452.11;1732221;82;22193;-73
2021/03/22 09:58:00;;;;;;;24.95;14.05;;;;;;;2.19;79.25;98456.95;1758976;81;21163;-73
2021/03/22 10:00:40;;;;;;;37.20;18.27;;;;;;;2.22;78.99;98461.25;1705235;82;21091;-76
2021/03/22 10:03:41;;;;;;;26.37;14.63;;;;;;;2.27;78.66;98464.45;1758800;81;21147;-74
2021/03/22 10:06:45;;;;;;;35.98;19.15;;;;;;;2.39;79.62;98457.24;1727372;82;21491;-71
2021/03/22 10:09:26;;;;;;;28.85;15.80;;;;;;;2.54;78.68;98460.58;1680985;81;21379;-73
2021/03/22 10:11:55;;;;;;;33.73;18.10;;;;;;;2.68;77.63;98463.95;1731789;82;21390;-73
2021/03/22 10:14:33;;;;;;;27.20;15.48;;;;;;;2.71;76.91;98459.30;1758658;81;21021;-74
2021/03/22 10:17:01;;;;;;;28.47;16.67;;;;;;;2.77;76.80;98457.59;1758599;81;21098;-75
2021/03/22 10:19:32;;;;;;;26.95;14.93;;;;;;;2.85;76.54;98456.13;1758390;81;21187;-75
2021/03/22 10:22:17;;;;;;;36.83;18.92;;;;;;;2.94;75.96;98462.48;1758641;81;22409;-73
2021/03/22 10:25:07;;;;;;;28.00;16.07;;;;;;;2.98;75.48;98456.73;1742374;81;21027;-73
2021/03/22 10:27:38;;;;;;;28.02;17.20;;;;;;;2.98;74.78;98463.52;1761988;81;21062;-74
2021/03/22 10:30:20;;;;;;;31.90;17.48;;;;;;;2.94;74.54;98459.77;1749832;80;21040;-73
2021/03/22 10:35:49;;;;;;;27.67;15.32;;;;;;;2.83;73.57;98452.91;1691838;82;22293;-73
2021/03/22 10:38:26;;;;;;;25.90;15.23;;;;;;;2.77;73.48;98453.52;1724308;82;20994;-73
2021/03/22 10:40:55;;;;;;;28.05;15.45;;;;;;;2.77;72.87;98450.81;1695513;84;21226;-74
2021/03/22 10:43:30;;;;;;;28.07;16.82;;;;;;;2.76;73.38;98444.33;1669790;84;21567;-73
2021/03/22 10:46:04;;;;;;;27.35;15.40;;;;;;;2.77;73.59;98438.62;1697473;84;21215;-73
2021/03/22 10:48:34;;;;;;;22.00;14.25;;;;;;;2.82;73.53;98434.48;1698718;84;21176;-73
2021/03/22 10:51:12;;;;;;;26.50;14.40;;;;;;;2.82;73.48;98430.97;1707628;84;21152;-73
2021/03/22 10:54:02;;;;;;;25.48;15.03;;;;;;;2.83;73.08;98432.03;1707479;84;21208;-74
2021/03/22 10:56:40;;;;;;;24.15;14.58;;;;;;;2.77;72.69;98433.75;1707711;84;21310;-72
2021/03/22 10:59:19;;;;;;;25.80;16.35;;;;;;;2.65;72.90;98429.55;1707573;84;21189;-72
2021/03/22 11:01:48;;;;;;;31.52;17.40;;;;;;;2.57;73.28;98430.75;1723304;82;21409;-74
2021/03/22 11:04:23;;;;;;;30.55;17.60;;;;;;;2.47;73.80;98440.36;1720724;82;21156;-75
2021/03/22 11:06:51;;;;;;;28.87;16.73;;;;;;;2.34;74.22;98443.22;1708098;82;21199;-74
2021/03/22 11:09:23;;;;;;;27.67;17.07;;;;;;;2.22;74.49;98438.23;1723427;82;21070;-73
2021/03/22 11:11:51;;;;;;;31.23;18.27;;;;;;;2.14;74.88;98445.63;1720674;82;21179;-74
2021/03/22 11:14:21;;;;;;;32.33;18.35;;;;;;;2.11;75.45;98439.98;1722974;82;22114;-74
2021/03/22 11:16:49;;;;;;;30.50;18.48;;;;;;;2.10;75.37;98441.08;1700625;82;21199;-73
2021/03/22 11:19:31;;;;;;;32.13;18.32;;;;;;;2.06;75.68;98438.68;1707723;84;21022;-72
2021/03/22 11:22:03;;;;;;;26.48;16.37;;;;;;;2.03;76.30;98443.31;1726592;82;21200;-73
2021/03/22 11:24:39;;;;;;;32.00;17.67;;;;;;;2.04;77.08;98438.97;1730331;82;21217;-75
2021/03/22 11:27:09;;;;;;;32.80;18.92;;;;;;;2.03;76.76;98442.77;1708257;84;21366;-74
2021/03/22 11:30:03;;;;;;;39.38;21.15;;;;;;;2.02;76.50;98447.11;1708411;84;21201;-73
2021/03/22 11:32:33;;;;;;;36.70;20.82;;;;;;;1.97;76.59;98447.42;1708605;84;21186;-71
2021/03/22 11:35:29;;;;;;;34.98;19.10;;;;;;;1.96;77.07;98444.45;1703054;84;21162;-73
2021/03/22 11:37:59;;;;;;;31.33;18.05;;;;;;;1.99;77.19;98447.95;1681232;83;21179;-74
2021/03/22 11:40:30;;;;;;;31.23;17.60;;;;;;;2.01;77.26;98444.14;1729144;83;22285;-73
2021/03/22 11:43:01;;;;;;;;;;;;;;;2.05;77.08;98441.13;1731535;82;21541;-74
2021/03/22 11:45:41;;;;;;;30.37;17.50;;;;;;;2.06;76.79;98457.08;1729072;83;20282;-71
2021/03/22 11:48:31;;;;;;;33.28;18.90;;;;;;;2.02;76.53;98450.62;1728950;83;21072;-71
2021/03/22 11:51:08;;;;;;;29.50;18.48;;;;;;;2.00;76.42;98451.45;1729202;83;21102;-71
2021/03/22 11:54:05;;;;;;;32.78;18.98;;;;;;;1.96;75.41;98455.83;1729244;83;21337;-71
2021/03/22 11:56:35;;;;;;;32.25;18.35;;;;;;;1.93;75.52;98461.81;1697596;83;21128;-70
2021/03/22 11:59:22;;;;;;;34.08;19.82;;;;;;;1.88;75.77;98458.61;1729169;83;21170;-73
2021/03/22 12:02:18;;;;;;;47.13;24.72;;;;;;;1.83;75.63;98464.07;1729018;82;21176;-71
2021/03/22 12:04:57;;;;;;;41.53;22.73;;;;;;;1.85;75.79;98461.88;1700126;84;21594;-71
2021/03/22 12:07:39;;;;;;;36.28;20.72;;;;;;;1.92;76.76;98453.44;1714376;83;22306;-73
2021/03/22 12:10:28;;;;;;;32.30;18.57;;;;;;;2.03;75.83;98457.66;1887881;76;23314;-73
2021/03/22 12:12:59;;;;;;;35.98;21.50;;;;;;;2.03;75.04;98447.38;1774789;80;21041;-71
2021/03/22 12:15:27;;;;;;;38.92;22.93;;;;;;;2.09;74.87;98454.34;1773561;81;21750;-73
2021/03/22 12:18:07;;;;;;;31.68;17.62;;;;;;;2.14;75.38;98454.30;1774595;80;21025;-72